Odin — FAC8377 — position and weather

sailwx.info

Track history (hours):
 
Tides and Currents Weather Stations Pressure Air Temp Water Temp Dewpoint Dewpoint Depression Visibility Wind Speed Wind Dir Waves Ship Positions

Odin

Last reported at 2017-Aug-23 16:35 UTC. Time now 2017-Sep-22 01:11 UTC.
Position N 47°21' W 002°34'.
Warning: this ship's position is 29 days out of date.

Length 10 m.

Type: Sailing vessel. MMSI: 227351010.

Date/timePositionNaut miles runAvg speedWind from/ knotsBaromVisibWave heightAir tempDewpointWater temp
2017-Aug-23 16:35N 47°21' W 002°34'1 6.9
2017-Aug-23 16:30N 47°21' W 002°34'3 6.0
2017-Aug-23 15:59N 47°22' W 002°39'3 6.0
2017-Aug-23 15:29N 47°24' W 002°43'3 6.9
2017-Aug-23 15:00N 47°26' W 002°46'7 6.7
2017-Aug-23 14:00N 47°29' W 002°55'3 6.0
2017-Aug-23 13:30N 47°31' W 002°58'3 5.9
2017-Aug-23 13:00N 47°34' W 003°00'2 3.5
2017-Aug-23 12:29N 47°35' W 003°02'0 0.0
2017-Aug-23 11:59N 47°35' W 003°02'0 0.0
2017-Aug-23 11:29N 47°35' W 003°02'0 0.0
2017-Aug-23 10:59N 47°35' W 003°02'0 0.0
2017-Aug-23 10:29N 47°35' W 003°02'0 0.0
2017-Aug-22 16:40N 47°35' W 003°02'0 0.0
2017-Aug-22 16:28N 47°35' W 003°02'0 0.2
2017-Aug-22 16:00N 47°35' W 003°01'2 3.6
2017-Aug-22 15:30N 47°34' W 003°01'3 5.0
2017-Aug-22 15:00N 47°31' W 003°01'3 5.4
2017-Aug-22 14:30N 47°28' W 003°02'2 4.2
2017-Aug-22 14:00N 47°27' W 003°03'2 4.6
2017-Aug-22 13:30N 47°27' W 003°07'3 5.4
2017-Aug-22 13:00N 47°28' W 003°10'3 5.8
2017-Aug-22 12:30N 47°30' W 003°14'3 5.7
2017-Aug-22 12:00N 47°32' W 003°17'1 2.5
2017-Aug-22 11:30N 47°32' W 003°18'2 3.5
2017-Aug-22 11:00N 47°34' W 003°20'2 4.6
2017-Aug-22 10:30N 47°36' W 003°21'3 5.1
2017-Aug-22 10:00N 47°38' W 003°22'1 2.8
2017-Aug-22 09:30N 47°40' W 003°22'3 5.2
2017-Aug-22 09:00N 47°42' W 003°22'1 1.1
2017-Aug-22 08:30N 47°43' W 003°21'0 0.0
2017-Aug-22 08:00N 47°43' W 003°21'0 0.0
2017-Aug-22 07:30N 47°43' W 003°21'0 0.0
2017-Aug-22 07:00N 47°43' W 003°21'0 0.0
2017-Aug-22 06:30N 47°43' W 003°21'0 0.0
2017-Aug-21 18:55N 47°43' W 003°21'0 0.0
2017-Aug-21 18:28N 47°43' W 003°21'0 0.0
2017-Aug-21 18:00N 47°43' W 003°21'2 3.1
2017-Aug-21 17:30N 47°42' W 003°23'3 5.8
2017-Aug-21 17:00N 47°39' W 003°26'1 0.0
2017-Aug-20 10:56N 47°39' W 003°27'0 0.0
2017-Aug-20 10:29N 47°39' W 003°27'1 1.3
2017-Aug-20 10:00N 47°39' W 003°26'1 2.0
2017-Aug-20 09:30N 47°39' W 003°25'2 3.6
2017-Aug-20 09:00N 47°40' W 003°23'2 4.6
2017-Aug-20 08:30N 47°42' W 003°22'1 1.1
2017-Aug-20 07:58N 47°43' W 003°21'0 0.0
2017-Aug-19 11:27N 47°43' W 003°21'0 0.0
2017-Aug-19 11:00N 47°43' W 003°21'1 1.1
2017-Aug-19 10:30N 47°43' W 003°22'2 4.6
2017-Aug-19 10:00N 47°41' W 003°24'3 6.1
2017-Aug-19 09:31N 47°39' W 003°27'0 0.5
2017-Aug-19 09:00N 47°39' W 003°27'0 0.0
2017-Aug-18 15:14N 47°39' W 003°27'0 0.0
2017-Aug-18 14:59N 47°39' W 003°27'0 0.0
2017-Aug-18 14:29N 47°39' W 003°27'0 0.0
2017-Aug-18 13:29N 47°39' W 003°27'0 0.7
2017-Aug-18 13:00N 47°39' W 003°27'3 6.8
2017-Aug-18 12:30N 47°40' W 003°32'4 6.8
2017-Aug-18 11:59N 47°41' W 003°37'18 5.7
2017-Aug-18 08:53N 47°52' W 003°57'11 0.2
2017-Aug-16 07:55N 47°44' W 003°44'3 6.2
2017-Aug-16 07:30N 47°44' W 003°40'3 6.3
2017-Aug-16 07:00N 47°43' W 003°36'3 6.2
2017-Aug-16 06:30N 47°42' W 003°31'3 5.8
2017-Aug-16 06:00N 47°41' W 003°27'3 5.6
2017-Aug-16 05:30N 47°42' W 003°23'2 3.3
2017-Aug-16 05:00N 47°43' W 003°21'0 0.1
2017-Aug-16 04:30N 47°43' W 003°21'0 0.0
2017-Aug-15 16:00N 47°43' W 003°21'0 0.0
2017-Aug-15 15:30N 47°43' W 003°21'0 1.0
2017-Aug-15 15:00N 47°43' W 003°22'2 4.2
2017-Aug-15 14:30N 47°41' W 003°24'2 4.3
2017-Aug-15 14:00N 47°40' W 003°27'3 5.7
2017-Aug-15 13:30N 47°41' W 003°31'3 6.2
2017-Aug-15 12:59N 47°42' W 003°35'3 5.9
2017-Aug-15 12:30N 47°43' W 003°39'  
Track history (hours):
 
Tides and Currents Weather Stations Pressure Air Temp Water Temp Dewpoint Dewpoint Depression Visibility Wind Speed Wind Dir Waves Ship Positions

Odin

Last reported at 2017-Aug-23 16:35 UTC. Time now 2017-Sep-22 01:11 UTC.
Position N 47°21' W 002°34'.
Warning: this ship's position is 29 days out of date.

Length 10 m.

Type: Sailing vessel. MMSI: 227351010.

Date/timePositionNaut miles runAvg speedWind from/ knotsBaromVisibWave heightAir tempDewpointWater temp
2017-Aug-23 16:35N 47°21' W 002°34'1 6.9
2017-Aug-23 16:30N 47°21' W 002°34'3 6.0
2017-Aug-23 15:59N 47°22' W 002°39'3 6.0
2017-Aug-23 15:29N 47°24' W 002°43'3 6.9
2017-Aug-23 15:00N 47°26' W 002°46'7 6.7
2017-Aug-23 14:00N 47°29' W 002°55'3 6.0
2017-Aug-23 13:30N 47°31' W 002°58'3 5.9
2017-Aug-23 13:00N 47°34' W 003°00'2 3.5
2017-Aug-23 12:29N 47°35' W 003°02'0 0.0
2017-Aug-23 11:59N 47°35' W 003°02'0 0.0
2017-Aug-23 11:29N 47°35' W 003°02'0 0.0
2017-Aug-23 10:59N 47°35' W 003°02'0 0.0
2017-Aug-23 10:29N 47°35' W 003°02'0 0.0
2017-Aug-22 16:40N 47°35' W 003°02'0 0.0
2017-Aug-22 16:28N 47°35' W 003°02'0 0.2
2017-Aug-22 16:00N 47°35' W 003°01'2 3.6
2017-Aug-22 15:30N 47°34' W 003°01'3 5.0
2017-Aug-22 15:00N 47°31' W 003°01'3 5.4
2017-Aug-22 14:30N 47°28' W 003°02'2 4.2
2017-Aug-22 14:00N 47°27' W 003°03'2 4.6
2017-Aug-22 13:30N 47°27' W 003°07'3 5.4
2017-Aug-22 13:00N 47°28' W 003°10'3 5.8
2017-Aug-22 12:30N 47°30' W 003°14'3 5.7
2017-Aug-22 12:00N 47°32' W 003°17'1 2.5
2017-Aug-22 11:30N 47°32' W 003°18'2 3.5
2017-Aug-22 11:00N 47°34' W 003°20'2 4.6
2017-Aug-22 10:30N 47°36' W 003°21'3 5.1
2017-Aug-22 10:00N 47°38' W 003°22'1 2.8
2017-Aug-22 09:30N 47°40' W 003°22'3 5.2
2017-Aug-22 09:00N 47°42' W 003°22'1 1.1
2017-Aug-22 08:30N 47°43' W 003°21'0 0.0
2017-Aug-22 08:00N 47°43' W 003°21'0 0.0
2017-Aug-22 07:30N 47°43' W 003°21'0 0.0
2017-Aug-22 07:00N 47°43' W 003°21'0 0.0
2017-Aug-22 06:30N 47°43' W 003°21'0 0.0
2017-Aug-21 18:55N 47°43' W 003°21'0 0.0
2017-Aug-21 18:28N 47°43' W 003°21'0 0.0
2017-Aug-21 18:00N 47°43' W 003°21'2 3.1
2017-Aug-21 17:30N 47°42' W 003°23'3 5.8
2017-Aug-21 17:00N 47°39' W 003°26'1 0.0
2017-Aug-20 10:56N 47°39' W 003°27'0 0.0
2017-Aug-20 10:29N 47°39' W 003°27'1 1.3
2017-Aug-20 10:00N 47°39' W 003°26'1 2.0
2017-Aug-20 09:30N 47°39' W 003°25'2 3.6
2017-Aug-20 09:00N 47°40' W 003°23'2 4.6
2017-Aug-20 08:30N 47°42' W 003°22'1 1.1
2017-Aug-20 07:58N 47°43' W 003°21'0 0.0
2017-Aug-19 11:27N 47°43' W 003°21'0 0.0
2017-Aug-19 11:00N 47°43' W 003°21'1 1.1
2017-Aug-19 10:30N 47°43' W 003°22'2 4.6
2017-Aug-19 10:00N 47°41' W 003°24'3 6.1
2017-Aug-19 09:31N 47°39' W 003°27'0 0.5
2017-Aug-19 09:00N 47°39' W 003°27'0 0.0
2017-Aug-18 15:14N 47°39' W 003°27'0 0.0
2017-Aug-18 14:59N 47°39' W 003°27'0 0.0
2017-Aug-18 14:29N 47°39' W 003°27'0 0.0
2017-Aug-18 13:29N 47°39' W 003°27'0 0.7
2017-Aug-18 13:00N 47°39' W 003°27'3 6.8
2017-Aug-18 12:30N 47°40' W 003°32'4 6.8
2017-Aug-18 11:59N 47°41' W 003°37'18 5.7
2017-Aug-18 08:53N 47°52' W 003°57'11 0.2
2017-Aug-16 07:55N 47°44' W 003°44'3 6.2
2017-Aug-16 07:30N 47°44' W 003°40'3 6.3
2017-Aug-16 07:00N 47°43' W 003°36'3 6.2
2017-Aug-16 06:30N 47°42' W 003°31'3 5.8
2017-Aug-16 06:00N 47°41' W 003°27'3 5.6
2017-Aug-16 05:30N 47°42' W 003°23'2 3.3
2017-Aug-16 05:00N 47°43' W 003°21'0 0.1
2017-Aug-16 04:30N 47°43' W 003°21'0 0.0
2017-Aug-15 16:00N 47°43' W 003°21'0 0.0
2017-Aug-15 15:30N 47°43' W 003°21'0 1.0
2017-Aug-15 15:00N 47°43' W 003°22'2 4.2
2017-Aug-15 14:30N 47°41' W 003°24'2 4.3
2017-Aug-15 14:00N 47°40' W 003°27'3 5.7
2017-Aug-15 13:30N 47°41' W 003°31'3 6.2
2017-Aug-15 12:59N 47°42' W 003°35'3 5.9
2017-Aug-15 12:30N 47°43' W 003°39'  

Dump ship's entire track history